BAW356 KSAN-EGLL
Flight info
| Callsign | BAW356 |
|---|---|
| Flight time | N/A |
| Altitude | 33000 |
| Route | ZZOOO4 MTBAL DCT CADEZ/N0496F340 DCT HAKMN/N0499F330 Q73 LAKRR DCT MLF DCT KU66Q DCT 4323N10712W DCT CZI DCT RECAP/N0480F350 DCT DIK Q945 SEGAP DCT KAIIN DCT 56N090W 61N080W DCT BEZED DCT AYROU/M084F350 DCT EPMAN/M084F370 DCT 66N050W 6530N04000W 64N030W 6130N02000W DCT GOMUP/N0478F370 DCT GINGA DCT AKOMU DCT VAMEB DCT NUGRA NUGRA2H |
| Aircraft | B77W/H-SDE1E2E3FGHIJ2J3J4J5M1RWXY/LB1D1 |
Departure
| Time | 2026-05-04 04:40 |
|---|---|
| Airport | San Diego International Airport (KSAN) |
Arrival
| Time | N/A |
|---|---|
| Airport | London Heathrow Airport (EGLL) |
| Time | Latitude | Longitude | Altitude | Speed | Heading |
|---|---|---|---|---|---|
| 2026-05-04 04:10 | 32.73266 | -117.20649 | 30 ft | 0 kts | 179° |
| 2026-05-04 04:26 | 32.73283 | -117.20649 | 28 ft | 3 kts | 179° |
| 2026-05-04 04:26 | 32.73303 | -117.20649 | 26 ft | 3 kts | 170° |
| 2026-05-04 04:26 | 32.73322 | -117.20658 | 28 ft | 3 kts | 131° |
| 2026-05-04 04:26 | 32.73329 | -117.20670 | 26 ft | 0 kts | 104° |
| 2026-05-04 04:27 | 32.73330 | -117.20672 | 26 ft | 0 kts | 98° |
| 2026-05-04 04:31 | 32.73351 | -117.20588 | 28 ft | 17 kts | 53° |
| 2026-05-04 04:32 | 32.73422 | -117.20561 | 27 ft | 15 kts | 3° |
| 2026-05-04 04:32 | 32.73507 | -117.20511 | 29 ft | 12 kts | 44° |
| 2026-05-04 04:32 | 32.73565 | -117.20436 | 28 ft | 13 kts | 50° |
| 2026-05-04 04:32 | 32.73583 | -117.20336 | 26 ft | 13 kts | 102° |
| 2026-05-04 04:33 | 32.73559 | -117.20236 | 29 ft | 13 kts | 104° |
| 2026-05-04 04:33 | 32.73536 | -117.20135 | 30 ft | 13 kts | 105° |
| 2026-05-04 04:33 | 32.73511 | -117.20034 | 30 ft | 13 kts | 106° |
| 2026-05-04 04:33 | 32.73486 | -117.19929 | 31 ft | 13 kts | 105° |
| 2026-05-04 04:34 | 32.73461 | -117.19823 | 32 ft | 13 kts | 106° |
| 2026-05-04 04:34 | 32.73433 | -117.19710 | 31 ft | 15 kts | 106° |
| 2026-05-04 04:34 | 32.73403 | -117.19585 | 31 ft | 16 kts | 106° |
| 2026-05-04 04:34 | 32.73372 | -117.19460 | 32 ft | 16 kts | 106° |
| 2026-05-04 04:35 | 32.73339 | -117.19325 | 29 ft | 19 kts | 106° |
| 2026-05-04 04:35 | 32.73318 | -117.19222 | 28 ft | 9 kts | 94° |
| 2026-05-04 04:35 | 32.73350 | -117.19160 | 28 ft | 10 kts | 37° |
| 2026-05-04 04:35 | 32.73410 | -117.19112 | 28 ft | 11 kts | 33° |
| 2026-05-04 04:36 | 32.73470 | -117.19046 | 27 ft | 13 kts | 70° |
| 2026-05-04 04:36 | 32.73463 | -117.18936 | 27 ft | 14 kts | 104° |
| 2026-05-04 04:36 | 32.73436 | -117.18824 | 27 ft | 15 kts | 106° |
| 2026-05-04 04:36 | 32.73407 | -117.18704 | 29 ft | 15 kts | 106° |
| 2026-05-04 04:37 | 32.73318 | -117.18338 | 31 ft | 17 kts | 105° |
| 2026-05-04 04:37 | 32.73284 | -117.18198 | 31 ft | 18 kts | 106° |
| 2026-05-04 04:38 | 32.73256 | -117.18080 | 31 ft | 14 kts | 106° |
| 2026-05-04 04:38 | 32.73227 | -117.17962 | 29 ft | 16 kts | 106° |
| 2026-05-04 04:38 | 32.73196 | -117.17831 | 31 ft | 16 kts | 106° |
| 2026-05-04 04:38 | 32.73164 | -117.17702 | 31 ft | 16 kts | 106° |
| 2026-05-04 04:39 | 32.73128 | -117.17591 | 30 ft | 12 kts | 128° |
| 2026-05-04 04:39 | 32.73061 | -117.17526 | 31 ft | 8 kts | 147° |
| 2026-05-04 04:39 | 32.73022 | -117.17538 | 32 ft | 7 kts | 244° |
| 2026-05-04 04:39 | 32.73026 | -117.17607 | 30 ft | 10 kts | 284° |
| 2026-05-04 04:40 | 32.73061 | -117.17754 | 30 ft | 45 kts | 286° |
| 2026-05-04 04:40 | 32.73239 | -117.18491 | 33 ft | 139 kts | 286° |
| 2026-05-04 04:40 | 32.73581 | -117.19873 | 412 ft | 188 kts | 285° |
| 2026-05-04 04:40 | 32.73952 | -117.21378 | 1625 ft | 190 kts | 285° |
| 2026-05-04 04:41 | 32.74308 | -117.22897 | 2263 ft | 197 kts | 284° |
| 2026-05-04 04:41 | 32.74684 | -117.24536 | 2507 ft | 221 kts | 284° |
| 2026-05-04 04:41 | 32.75116 | -117.26330 | 3673 ft | 228 kts | 285° |
| 2026-05-04 04:41 | 32.75574 | -117.28171 | 5048 ft | 234 kts | 286° |
| 2026-05-04 04:42 | 32.76041 | -117.30027 | 6432 ft | 236 kts | 285° |
| 2026-05-04 04:42 | 32.76453 | -117.31939 | 7583 ft | 241 kts | 274° |
| 2026-05-04 04:42 | 32.76285 | -117.33887 | 8727 ft | 239 kts | 247° |
| 2026-05-04 04:42 | 32.75370 | -117.35537 | 9907 ft | 246 kts | 223° |
| 2026-05-04 04:43 | 32.73821 | -117.36583 | 10638 ft | 271 kts | 198° |
| 2026-05-04 04:43 | 32.71806 | -117.36748 | 10990 ft | 316 kts | 176° |
| 2026-05-04 04:43 | 32.69568 | -117.35865 | 11301 ft | 359 kts | 155° |
| 2026-05-04 04:43 | 32.67591 | -117.34157 | 11393 ft | 357 kts | 139° |
| 2026-05-04 04:44 | 32.66017 | -117.31869 | 11211 ft | 361 kts | 122° |
| 2026-05-04 04:44 | 32.65081 | -117.29093 | 11128 ft | 362 kts | 114° |
| 2026-05-04 04:44 | 32.64048 | -117.26388 | 11069 ft | 363 kts | 121° |
| 2026-05-04 04:44 | 32.63063 | -117.23601 | 11335 ft | 373 kts | 107° |
| 2026-05-04 04:45 | 32.62682 | -117.20520 | 12012 ft | 382 kts | 97° |
| 2026-05-04 04:45 | 32.62458 | -117.17362 | 12722 ft | 386 kts | 98° |
| 2026-05-04 04:45 | 32.62196 | -117.14162 | 13341 ft | 394 kts | 99° |
| 2026-05-04 04:47 | 32.66790 | -116.94682 | 16554 ft | 430 kts | 85° |
| 2026-05-04 04:47 | 32.66884 | -116.91123 | 17025 ft | 434 kts | 95° |
| 2026-05-04 04:47 | 32.66844 | -116.87560 | 17621 ft | 439 kts | 93° |
| 2026-05-04 04:47 | 32.66891 | -116.83907 | 18234 ft | 444 kts | 91° |
| 2026-05-04 04:48 | 32.67224 | -116.80255 | 18651 ft | 452 kts | 75° |
| 2026-05-04 04:49 | 32.76150 | -116.70664 | 20582 ft | 450 kts | 15° |
| 2026-05-04 04:49 | 32.79081 | -116.69312 | 21114 ft | 454 kts | 15° |
| 2026-05-04 04:49 | 32.82043 | -116.67948 | 21660 ft | 458 kts | 15° |
| 2026-05-04 04:49 | 32.85030 | -116.66542 | 22186 ft | 464 kts | 15° |
| 2026-05-04 04:50 | 32.88048 | -116.65090 | 22702 ft | 469 kts | 16° |
| 2026-05-04 04:50 | 32.90060 | -116.64110 | 23033 ft | 473 kts | 16° |
| 2026-05-04 04:50 | 32.94121 | -116.62108 | 23689 ft | 479 kts | 16° |
| 2026-05-04 04:50 | 32.96173 | -116.61094 | 23999 ft | 482 kts | 15° |
| 2026-05-04 04:51 | 32.99292 | -116.59559 | 24434 ft | 485 kts | 15° |
| 2026-05-04 04:51 | 33.03493 | -116.57473 | 24671 ft | 501 kts | 17° |
| 2026-05-04 04:51 | 33.05677 | -116.56349 | 24753 ft | 509 kts | 17° |
| 2026-05-04 04:51 | 33.08887 | -116.54665 | 25099 ft | 512 kts | 17° |
| 2026-05-04 04:52 | 33.12149 | -116.52936 | 25518 ft | 514 kts | 17° |
| 2026-05-04 04:52 | 33.15435 | -116.51194 | 25959 ft | 517 kts | 17° |
| 2026-05-04 04:52 | 33.18734 | -116.49453 | 26434 ft | 517 kts | 16° |
| 2026-05-04 04:52 | 33.22024 | -116.47721 | 27021 ft | 515 kts | 16° |
| 2026-05-04 04:53 | 33.25304 | -116.46000 | 27622 ft | 513 kts | 15° |
| 2026-05-04 04:53 | 33.28571 | -116.44286 | 28204 ft | 512 kts | 14° |
| 2026-05-04 04:53 | 33.31783 | -116.42597 | 28855 ft | 509 kts | 14° |
| 2026-05-04 04:53 | 33.35056 | -116.40884 | 29161 ft | 515 kts | 13° |
| 2026-05-04 04:54 | 33.38341 | -116.39047 | 29255 ft | 530 kts | 21° |
| 2026-05-04 04:54 | 33.41357 | -116.36322 | 29248 ft | 559 kts | 40° |
| 2026-05-04 04:54 | 33.43777 | -116.32661 | 29357 ft | 572 kts | 51° |
| 2026-05-04 04:54 | 33.46024 | -116.28674 | 29622 ft | 578 kts | 52° |
| 2026-05-04 04:55 | 33.48251 | -116.24641 | 29869 ft | 582 kts | 52° |
| 2026-05-04 04:55 | 33.50537 | -116.20610 | 30147 ft | 584 kts | 51° |
| 2026-05-04 04:55 | 33.52870 | -116.16632 | 30495 ft | 582 kts | 50° |
| 2026-05-04 04:55 | 33.55202 | -116.12734 | 30888 ft | 581 kts | 50° |
| 2026-05-04 04:56 | 33.57571 | -116.08790 | 31278 ft | 581 kts | 50° |
| 2026-05-04 04:56 | 33.59932 | -116.04845 | 31630 ft | 581 kts | 49° |
| 2026-05-04 04:56 | 33.62493 | -116.01135 | 31928 ft | 574 kts | 40° |
| 2026-05-04 04:56 | 33.65242 | -115.97871 | 32226 ft | 571 kts | 36° |
| 2026-05-04 04:57 | 33.68169 | -115.94670 | 32555 ft | 569 kts | 34° |
| 2026-05-04 04:57 | 33.71141 | -115.91490 | 32798 ft | 572 kts | 35° |
| 2026-05-04 04:57 | 33.77005 | -115.85052 | 32778 ft | 573 kts | 36° |
| 2026-05-04 04:58 | 33.82767 | -115.78433 | 32769 ft | 570 kts | 37° |
| 2026-05-04 04:58 | 33.88440 | -115.71831 | 32781 ft | 569 kts | 37° |
| 2026-05-04 04:59 | 33.94137 | -115.65220 | 32781 ft | 568 kts | 37° |
| 2026-05-04 04:59 | 33.99832 | -115.58617 | 32776 ft | 570 kts | 37° |
| 2026-05-04 05:00 | 34.05550 | -115.51985 | 32772 ft | 571 kts | 37° |
| 2026-05-04 05:01 | 34.14132 | -115.41972 | 32763 ft | 573 kts | 37° |
| 2026-05-04 05:01 | 34.20368 | -115.36109 | 32751 ft | 561 kts | 19° |
| 2026-05-04 05:02 | 34.27507 | -115.32727 | 32749 ft | 545 kts | 0° |
| 2026-05-04 05:02 | 34.34891 | -115.31295 | 32732 ft | 536 kts | 356° |
| 2026-05-04 05:03 | 34.42270 | -115.29958 | 32722 ft | 535 kts | 356° |
| 2026-05-04 05:04 | 34.56916 | -115.27068 | 32741 ft | 533 kts | 357° |
| 2026-05-04 05:04 | 34.64198 | -115.25597 | 32724 ft | 534 kts | 357° |
| 2026-05-04 05:06 | 34.93450 | -115.19694 | 32754 ft | 530 kts | 356° |
| 2026-05-04 05:07 | 35.00707 | -115.18223 | 32810 ft | 528 kts | 356° |
| 2026-05-04 05:07 | 35.07913 | -115.16761 | 32777 ft | 526 kts | 356° |
| 2026-05-04 05:09 | 35.40373 | -115.10141 | 32776 ft | 525 kts | 357° |
| 2026-05-04 05:10 | 35.47526 | -115.08372 | 32803 ft | 540 kts | 9° |
| 2026-05-04 05:10 | 35.51019 | -115.06417 | 32779 ft | 559 kts | 22° |
| 2026-05-04 05:10 | 35.54230 | -115.03614 | 32784 ft | 574 kts | 35° |
| 2026-05-04 05:11 | 35.59550 | -114.96319 | 32755 ft | 585 kts | 45° |
| 2026-05-04 05:11 | 35.64815 | -114.88755 | 32770 ft | 584 kts | 42° |
| 2026-05-04 05:12 | 35.70273 | -114.81318 | 32755 ft | 584 kts | 41° |
| 2026-05-04 05:12 | 35.75687 | -114.73932 | 32717 ft | 583 kts | 42° |
| 2026-05-04 05:13 | 35.81119 | -114.66469 | 32717 ft | 584 kts | 42° |
| 2026-05-04 05:13 | 35.86396 | -114.59205 | 32720 ft | 582 kts | 42° |